createdAt,value
2017-08-14T00:01:10.246Z,14.63
2017-08-14T00:02:22.868Z,14.58
2017-08-14T00:03:35.479Z,14.63
2017-08-14T00:04:48.099Z,14.55
2017-08-14T00:06:00.660Z,14.62
2017-08-14T00:07:13.216Z,14.61
2017-08-14T00:08:25.220Z,14.58
2017-08-14T00:09:37.886Z,14.49
2017-08-14T00:10:50.124Z,14.56
2017-08-14T00:12:02.709Z,14.55
2017-08-14T00:13:15.594Z,14.52
2017-08-14T00:14:27.910Z,14.55
2017-08-14T00:15:40.494Z,14.59
2017-08-14T00:16:53.120Z,14.48
2017-08-14T00:18:05.717Z,14.48
2017-08-14T00:19:18.012Z,14.44
2017-08-14T00:20:30.617Z,14.43
2017-08-14T00:21:43.180Z,14.33
2017-08-14T00:22:55.774Z,14.31
2017-08-14T00:24:08.344Z,14.4
2017-08-14T00:25:20.661Z,14.36
2017-08-14T00:26:32.872Z,14.3
2017-08-14T00:27:45.204Z,14.33
2017-08-14T00:28:57.829Z,14.25
2017-08-14T00:30:10.446Z,14.2
2017-08-14T00:31:22.697Z,14.38
2017-08-14T00:32:35.314Z,14.26
2017-08-14T00:33:47.596Z,14.31
2017-08-14T00:35:00.294Z,14.2
2017-08-14T00:36:12.840Z,14.22
2017-08-14T00:37:24.820Z,14.25
2017-08-14T00:38:37.097Z,14.25
2017-08-14T00:39:49.059Z,14.3
2017-08-14T00:41:01.602Z,14.23
2017-08-14T00:42:13.861Z,14.23
2017-08-14T00:43:26.430Z,14.2
2017-08-14T00:44:38.696Z,14.11
2017-08-14T00:45:51.337Z,14.25
2017-08-14T00:47:03.842Z,14.3
2017-08-14T00:48:16.138Z,14.18
2017-08-14T00:49:28.459Z,14.16
2017-08-14T00:50:41.038Z,14.19
2017-08-14T00:51:53.601Z,14.22
2017-08-14T00:53:06.172Z,14.15
2017-08-14T00:54:18.740Z,14.22
2017-08-14T00:55:31.330Z,14.11
2017-08-14T00:56:43.667Z,14.19
2017-08-14T00:57:56.284Z,14.13
2017-08-14T00:59:08.799Z,14.15
2017-08-14T01:00:20.770Z,14.11
2017-08-14T01:01:33.327Z,14.11
2017-08-14T01:02:45.626Z,14.05
2017-08-14T01:03:58.225Z,14.11
2017-08-14T01:05:10.789Z,14.18
2017-08-14T01:06:22.772Z,14.12
2017-08-14T01:07:35.332Z,14.08
2017-08-14T01:08:47.958Z,14.04
2017-08-14T01:10:00.587Z,14.07
2017-08-14T01:11:13.199Z,14.08
2017-08-14T01:12:25.819Z,14.11
2017-08-14T01:13:38.080Z,14.08
2017-08-14T01:14:50.720Z,14.11
2017-08-14T01:16:03.333Z,14.07
2017-08-14T01:17:15.942Z,14.07
2017-08-14T01:18:28.293Z,14.11
2017-08-14T01:19:40.880Z,14.05
2017-08-14T01:20:53.491Z,14
2017-08-14T01:22:06.098Z,14.01
2017-08-14T01:23:18.641Z,13.98
2017-08-14T01:24:31.279Z,13.98
2017-08-14T01:25:43.911Z,13.91
2017-08-14T01:26:56.209Z,13.95
2017-08-14T01:28:08.817Z,13.98
2017-08-14T01:29:21.070Z,13.87
2017-08-14T01:30:33.684Z,13.83
2017-08-14T01:31:45.672Z,13.93
2017-08-14T01:32:58.013Z,13.83
2017-08-14T01:34:10.615Z,13.86
2017-08-14T01:35:22.608Z,13.87
2017-08-14T01:36:34.849Z,13.8
2017-08-14T01:37:47.422Z,13.82
2017-08-14T01:38:59.730Z,13.82
2017-08-14T01:40:12.033Z,13.83
2017-08-14T01:41:24.590Z,13.78
2017-08-14T01:42:37.187Z,13.8
2017-08-14T01:43:49.772Z,13.78
2017-08-14T01:45:02.327Z,13.78
2017-08-14T01:46:14.814Z,13.75
2017-08-14T01:47:27.103Z,13.78
2017-08-14T01:48:39.748Z,13.85
2017-08-14T01:49:51.993Z,13.79
2017-08-14T01:51:04.304Z,13.76
2017-08-14T01:52:16.611Z,13.82
2017-08-14T01:53:28.921Z,13.78
2017-08-14T01:54:41.539Z,13.83
2017-08-14T01:55:53.863Z,13.76
2017-08-14T01:57:06.212Z,13.82
2017-08-14T01:58:18.783Z,13.8
2017-08-14T01:59:31.042Z,13.82
2017-08-14T02:00:43.567Z,13.73
2017-08-14T02:01:56.119Z,13.82
2017-08-14T02:03:08.738Z,13.82
2017-08-14T02:04:21.376Z,13.76
2017-08-14T02:05:33.941Z,13.82
2017-08-14T02:06:46.562Z,13.76
2017-08-14T02:07:58.825Z,13.76
2017-08-14T02:09:11.123Z,13.8
2017-08-14T02:10:23.709Z,13.82
2017-08-14T02:11:36.260Z,13.85
2017-08-14T02:12:48.775Z,13.82
2017-08-14T02:14:01.107Z,13.89
2017-08-14T02:15:13.708Z,13.91
2017-08-14T02:16:26.287Z,13.83
2017-08-14T02:17:38.844Z,13.83
2017-08-14T02:18:51.419Z,13.89
2017-08-14T02:20:04.060Z,13.91
2017-08-14T02:21:16.373Z,13.94
2017-08-14T02:22:28.652Z,13.86
2017-08-14T02:23:40.939Z,13.91
2017-08-14T02:24:53.518Z,13.93
2017-08-14T02:26:06.077Z,13.95
2017-08-14T02:27:18.403Z,13.97
2017-08-14T02:28:30.721Z,13.97
2017-08-14T02:29:43.298Z,14
2017-08-14T02:30:55.899Z,14.04
2017-08-14T02:32:08.530Z,14.03
2017-08-14T02:33:21.120Z,14.04
2017-08-14T02:34:33.616Z,14.12
2017-08-14T02:35:46.132Z,14.05
2017-08-14T02:36:58.682Z,14.11
2017-08-14T02:38:11.304Z,14.2
2017-08-14T02:39:23.858Z,14.13
2017-08-14T02:40:36.428Z,14.18
2017-08-14T02:41:48.432Z,14.16
2017-08-14T02:43:01.014Z,14.13
2017-08-14T02:44:13.642Z,14.26
2017-08-14T02:45:25.893Z,14.26
2017-08-14T02:46:38.451Z,14.22
2017-08-14T02:47:51.048Z,14.28
2017-08-14T02:49:03.627Z,14.28
2017-08-14T02:50:16.172Z,14.36
2017-08-14T02:51:28.749Z,14.31
2017-08-14T02:52:41.288Z,14.36
2017-08-14T02:53:53.860Z,14.37
2017-08-14T02:55:06.131Z,14.34
2017-08-14T02:56:18.704Z,14.44
2017-08-14T02:57:31.330Z,14.45
2017-08-14T02:58:43.616Z,14.41
2017-08-14T02:59:55.866Z,14.4
2017-08-14T03:01:08.421Z,14.45
2017-08-14T03:02:21.217Z,14.53
2017-08-14T03:03:33.862Z,14.49
2017-08-14T03:04:46.481Z,14.53
2017-08-14T03:05:59.024Z,14.56
2017-08-14T03:07:11.561Z,14.56
2017-08-14T03:08:23.878Z,14.59
2017-08-14T03:09:36.456Z,14.53
2017-08-14T03:10:49.085Z,14.51
2017-08-14T03:12:01.674Z,14.56
2017-08-14T03:13:14.195Z,14.63
2017-08-14T03:14:26.701Z,14.66
2017-08-14T03:15:39.289Z,14.63
2017-08-14T03:16:51.531Z,14.59
2017-08-14T03:18:03.778Z,14.61
2017-08-14T03:19:16.416Z,14.61
2017-08-14T03:20:28.984Z,14.67
2017-08-14T03:21:41.565Z,14.63
2017-08-14T03:22:54.187Z,14.56
2017-08-14T03:24:06.824Z,14.53
2017-08-14T03:25:18.864Z,14.56
2017-08-14T03:26:31.174Z,14.68
2017-08-14T03:27:43.457Z,14.52
2017-08-14T03:28:56.117Z,14.59
2017-08-14T03:30:08.674Z,14.49
2017-08-14T03:31:20.980Z,14.59
2017-08-14T03:32:33.246Z,14.63
2017-08-14T03:33:45.780Z,14.49
2017-08-14T03:34:58.358Z,14.51
2017-08-14T03:36:10.964Z,14.55
2017-08-14T03:37:23.551Z,14.58
2017-08-14T03:38:36.076Z,14.48
2017-08-14T03:39:48.664Z,14.56
2017-08-14T03:41:01.304Z,14.62
2017-08-14T03:42:13.945Z,14.51
2017-08-14T03:43:25.864Z,14.51
2017-08-14T03:44:38.512Z,14.56
2017-08-14T03:45:50.727Z,14.53
2017-08-14T03:47:03.397Z,14.45
2017-08-14T03:48:15.917Z,14.44
2017-08-14T03:49:28.481Z,14.48
2017-08-14T03:50:41.078Z,14.37
2017-08-14T03:51:53.341Z,14.43
2017-08-14T03:53:05.935Z,14.34
2017-08-14T03:54:18.197Z,14.33
2017-08-14T03:55:30.433Z,14.36
2017-08-14T03:56:43.073Z,14.31
2017-08-14T03:57:55.698Z,14.26
2017-08-14T03:59:08.045Z,14.2
2017-08-14T04:00:20.665Z,14.23
2017-08-14T04:01:32.629Z,14.23
2017-08-14T04:02:44.618Z,14.34
2017-08-14T04:03:56.904Z,14.23
2017-08-14T04:05:09.481Z,14.23
2017-08-14T04:06:22.080Z,14.16
2017-08-14T04:07:34.690Z,14.22
2017-08-14T04:08:47.298Z,14.23
2017-08-14T04:09:59.589Z,14.16
2017-08-14T04:11:12.160Z,14.07
2017-08-14T04:12:24.829Z,14.19
2017-08-14T04:13:37.415Z,14.15
2017-08-14T04:14:49.662Z,14.15
2017-08-14T04:16:01.973Z,14.12
2017-08-14T04:17:14.258Z,14.19
2017-08-14T04:18:26.574Z,14.18
2017-08-14T04:19:38.897Z,14.18
2017-08-14T04:20:51.515Z,14.18
2017-08-14T04:22:03.819Z,14.15
2017-08-14T04:23:16.106Z,14.15
2017-08-14T04:24:28.060Z,14.13
2017-08-14T04:25:40.679Z,14.15
2017-08-14T04:26:53.261Z,14.18
2017-08-14T04:28:05.641Z,14.19
2017-08-14T04:29:18.223Z,14.18
2017-08-14T04:30:30.512Z,14.18
2017-08-14T04:31:42.740Z,14.2
2017-08-14T04:32:55.332Z,14.18
2017-08-14T04:34:07.970Z,14.19
2017-08-14T04:35:19.927Z,14.18
2017-08-14T04:36:32.203Z,14.2
2017-08-14T04:37:44.436Z,14.16
2017-08-14T04:38:56.751Z,14.25
2017-08-14T04:40:09.049Z,14.23
2017-08-14T04:41:21.371Z,14.31
2017-08-14T04:42:33.967Z,14.26
2017-08-14T04:43:45.885Z,14.26
2017-08-14T04:44:58.765Z,14.23
2017-08-14T04:46:11.383Z,14.3
2017-08-14T04:47:23.700Z,14.36
2017-08-14T04:48:36.252Z,14.36
2017-08-14T04:49:48.542Z,14.48
2017-08-14T04:51:01.123Z,14.45
2017-08-14T04:52:13.361Z,14.45
2017-08-14T04:53:25.654Z,14.45
2017-08-14T04:54:37.632Z,14.44
2017-08-14T04:55:49.871Z,14.49
2017-08-14T04:57:02.174Z,14.48
2017-08-14T04:58:14.763Z,14.44
2017-08-14T04:59:27.335Z,14.53
2017-08-14T05:00:39.898Z,14.52
2017-08-14T05:01:52.473Z,14.55
2017-08-14T05:03:04.751Z,14.53
2017-08-14T05:04:17.361Z,14.55
2017-08-14T05:05:29.950Z,14.58
2017-08-14T05:06:42.819Z,14.55
2017-08-14T05:07:55.067Z,14.58
2017-08-14T05:09:07.632Z,14.59
2017-08-14T05:10:20.198Z,14.62
2017-08-14T05:11:32.802Z,14.45
2017-08-14T05:12:45.366Z,14.59
2017-08-14T05:13:57.050Z,14.62
2017-08-14T05:15:09.382Z,14.55
2017-08-14T05:16:21.979Z,14.51
2017-08-14T05:17:34.250Z,14.53
2017-08-14T05:18:46.489Z,14.53
2017-08-14T05:19:59.048Z,14.61
2017-08-14T05:21:11.639Z,14.53
2017-08-14T05:22:23.925Z,14.61
2017-08-14T05:23:36.184Z,14.52
2017-08-14T05:24:48.509Z,14.56
2017-08-14T05:26:00.756Z,14.59
2017-08-14T05:27:13.344Z,14.56
2017-08-14T05:28:25.980Z,14.59
2017-08-14T05:29:38.274Z,14.62
2017-08-14T05:30:50.846Z,14.66
2017-08-14T05:32:03.442Z,14.58
2017-08-14T05:33:15.997Z,14.66
2017-08-14T05:34:28.627Z,14.67
2017-08-14T05:35:41.190Z,14.66
2017-08-14T05:36:53.773Z,14.7
2017-08-14T05:38:05.453Z,14.77
2017-08-14T05:39:17.710Z,14.77
2017-08-14T05:40:30.278Z,14.71
2017-08-14T05:41:42.308Z,14.78
2017-08-14T05:42:54.937Z,14.81
2017-08-14T05:44:07.183Z,14.89
2017-08-14T05:45:19.742Z,14.9
2017-08-14T05:46:32.350Z,14.96
2017-08-14T05:47:44.313Z,14.82
2017-08-14T05:48:56.922Z,14.96
2017-08-14T05:50:09.265Z,14.99
2017-08-14T05:51:21.908Z,14.96
2017-08-14T05:52:33.931Z,15.04
2017-08-14T05:53:45.551Z,15.14
2017-08-14T05:54:58.103Z,15.07
2017-08-14T05:56:10.695Z,15.17
2017-08-14T05:57:22.938Z,15.18
2017-08-14T05:58:35.201Z,15.17
2017-08-14T05:59:47.756Z,15.26
2017-08-14T06:01:00.662Z,15.32
2017-08-14T06:02:12.950Z,15.33
2017-08-14T06:03:25.217Z,15.29
2017-08-14T06:04:37.189Z,15.44
2017-08-14T06:05:49.752Z,15.5
2017-08-14T06:07:02.398Z,15.52
2017-08-14T06:08:15.013Z,15.59
2017-08-14T06:09:27.580Z,15.66
2017-08-14T06:10:40.172Z,15.67
2017-08-14T06:11:52.727Z,15.67
2017-08-14T06:13:05.043Z,15.73
2017-08-14T06:14:17.592Z,15.83
2017-08-14T06:15:30.160Z,15.78
2017-08-14T06:16:42.809Z,15.92
2017-08-14T06:17:55.376Z,15.9
2017-08-14T06:19:07.665Z,16.02
2017-08-14T06:20:20.242Z,16
2017-08-14T06:21:32.533Z,16.16
2017-08-14T06:22:44.514Z,16.1
2017-08-14T06:23:56.830Z,16.17
2017-08-14T06:25:09.122Z,16.26
2017-08-14T06:26:21.789Z,16.28
2017-08-14T06:27:34.124Z,16.32
2017-08-14T06:28:45.868Z,16.57
2017-08-14T06:29:58.477Z,16.76
2017-08-14T06:31:11.100Z,17.14
2017-08-14T06:32:23.662Z,17.44
2017-08-14T06:33:35.965Z,17.66
2017-08-14T06:34:48.587Z,18.08
2017-08-14T06:36:01.207Z,18.41
2017-08-14T06:37:13.778Z,18.83
2017-08-14T06:38:26.304Z,19.16
2017-08-14T06:39:38.869Z,19.62
2017-08-14T06:40:51.145Z,19.96
2017-08-14T06:42:03.780Z,20.3
2017-08-14T06:43:16.338Z,20.66
2017-08-14T06:44:28.955Z,21.03
2017-08-14T06:45:41.501Z,21.35
2017-08-14T06:46:54.074Z,21.7
2017-08-14T06:48:06.678Z,22.06
2017-08-14T06:49:19.244Z,22.3
2017-08-14T06:50:31.875Z,22.56
2017-08-14T06:51:44.481Z,22.92
2017-08-14T06:52:57.131Z,23.25
2017-08-14T06:54:09.673Z,23.45
2017-08-14T06:55:21.668Z,23.74
2017-08-14T06:56:33.950Z,23.94
2017-08-14T06:57:45.927Z,24.24
2017-08-14T06:58:58.464Z,24.47
2017-08-14T07:00:10.833Z,24.59
2017-08-14T07:01:23.182Z,24.74
2017-08-14T07:02:35.819Z,25.03
2017-08-14T07:03:48.075Z,25.19
2017-08-14T07:05:00.754Z,25.34
2017-08-14T07:06:12.447Z,25.59
2017-08-14T07:07:25.068Z,25.74
2017-08-14T07:08:37.107Z,25.92
2017-08-14T07:09:49.378Z,26.07
2017-08-14T07:11:01.021Z,26.08
2017-08-14T07:12:13.310Z,26.34
2017-08-14T07:13:25.261Z,26.51
2017-08-14T07:14:37.552Z,26.6
2017-08-14T07:15:49.790Z,26.59
2017-08-14T07:17:02.074Z,26.79
2017-08-14T07:18:14.715Z,26.74
2017-08-14T07:19:27.263Z,26.89
2017-08-14T07:20:39.507Z,26.92
2017-08-14T07:21:51.513Z,27.11
2017-08-14T07:23:03.901Z,27.23
2017-08-14T07:24:15.869Z,27.35
2017-08-14T07:25:28.166Z,27.35
2017-08-14T07:26:40.742Z,27.28
2017-08-14T07:27:53.382Z,27.4
2017-08-14T07:29:05.989Z,27.52
2017-08-14T07:30:18.054Z,27.67
2017-08-14T07:31:30.638Z,27.72
2017-08-14T07:32:42.915Z,27.86
2017-08-14T07:33:55.530Z,27.94
2017-08-14T07:35:07.568Z,28.08
2017-08-14T07:36:19.990Z,28.25
2017-08-14T07:37:32.316Z,28.3
2017-08-14T07:38:44.571Z,28.22
2017-08-14T07:39:56.816Z,28.35
2017-08-14T07:41:09.417Z,28.5
2017-08-14T07:42:22.012Z,28.53
2017-08-14T07:43:34.653Z,28.45
2017-08-14T07:44:47.239Z,28.49
2017-08-14T07:45:59.563Z,28.56
2017-08-14T07:47:12.192Z,28.68
2017-08-14T07:48:24.462Z,28.72
2017-08-14T07:49:37.044Z,28.9
2017-08-14T07:50:49.012Z,29.05
2017-08-14T07:52:01.576Z,29.13
2017-08-14T07:53:13.905Z,29.35
2017-08-14T07:54:26.172Z,29.31
2017-08-14T07:55:38.726Z,29.39
2017-08-14T07:56:51.421Z,29.28
2017-08-14T07:58:03.756Z,29.34
2017-08-14T07:59:16.318Z,29.32
2017-08-14T08:00:28.609Z,29.53
2017-08-14T08:01:41.240Z,29.59
2017-08-14T08:02:53.158Z,29.68
2017-08-14T08:04:05.702Z,29.76
2017-08-14T08:05:18.243Z,29.77
2017-08-14T08:06:30.538Z,29.67
2017-08-14T08:07:42.540Z,29.77
2017-08-14T08:08:55.127Z,29.87
2017-08-14T08:10:07.788Z,29.71
2017-08-14T08:11:20.454Z,29.86
2017-08-14T08:12:33.056Z,29.46
2017-08-14T08:13:45.684Z,29.68
2017-08-14T08:14:57.632Z,29.68
2017-08-14T08:16:09.993Z,29.62
2017-08-14T08:17:22.297Z,29.46
2017-08-14T08:18:34.912Z,29.34
2017-08-14T08:19:47.242Z,29.2
2017-08-14T08:20:59.233Z,28.78
2017-08-14T08:22:11.584Z,28.64
2017-08-14T08:23:23.894Z,28.34
2017-08-14T08:24:35.564Z,28.09
2017-08-14T08:25:48.148Z,27.68
2017-08-14T08:27:00.473Z,27.47
2017-08-14T08:28:12.820Z,27.37
2017-08-14T08:29:25.134Z,27.13
2017-08-14T08:30:36.812Z,26.98
2017-08-14T08:31:49.089Z,26.68
2017-08-14T08:33:01.421Z,26.55
2017-08-14T08:34:14.021Z,26.33
2017-08-14T08:35:26.621Z,26.29
2017-08-14T08:36:38.923Z,26.24
2017-08-14T08:37:50.581Z,26.04
2017-08-14T08:39:02.846Z,25.74
2017-08-14T08:40:15.160Z,25.58
2017-08-14T08:41:27.749Z,25.39
2017-08-14T08:42:39.766Z,25.29
2017-08-14T08:43:52.328Z,25.25
2017-08-14T08:45:04.970Z,25.15
2017-08-14T08:46:17.243Z,25.01
2017-08-14T08:47:29.498Z,24.96
2017-08-14T08:48:42.114Z,24.79
2017-08-14T08:49:54.434Z,24.69
2017-08-14T08:51:07.022Z,24.74
2017-08-14T08:52:19.073Z,24.58
2017-08-14T08:53:31.384Z,24.62
2017-08-14T08:54:43.956Z,24.59
2017-08-14T08:55:56.609Z,24.62
2017-08-14T08:57:09.232Z,24.62
2017-08-14T08:58:21.493Z,24.59
2017-08-14T08:59:34.111Z,24.41
2017-08-14T09:00:46.398Z,24.44
2017-08-14T09:01:59.017Z,24.43
2017-08-14T09:03:11.625Z,24.44
2017-08-14T09:04:23.664Z,24.44
2017-08-14T09:05:35.949Z,24.48
2017-08-14T09:06:47.948Z,24.44
2017-08-14T09:08:00.530Z,24.44
2017-08-14T09:09:13.119Z,24.41
2017-08-14T09:10:25.710Z,24.48
2017-08-14T09:11:37.949Z,24.44
2017-08-14T09:12:49.878Z,24.38
2017-08-14T09:14:02.460Z,24.43
2017-08-14T09:15:15.019Z,24.48
2017-08-14T09:16:27.057Z,24.56
2017-08-14T09:17:39.345Z,24.61
2017-08-14T09:18:51.037Z,24.68
2017-08-14T09:20:03.614Z,24.77
2017-08-14T09:21:15.905Z,24.78
2017-08-14T09:22:28.185Z,24.79
2017-08-14T09:23:40.826Z,24.82
2017-08-14T09:24:53.121Z,24.93
2017-08-14T09:26:05.739Z,24.88
2017-08-14T09:27:18.410Z,25
2017-08-14T09:28:31.099Z,25.06
2017-08-14T09:29:43.661Z,25.19
2017-08-14T09:30:55.648Z,25.25
2017-08-14T09:32:08.301Z,25.37
2017-08-14T09:33:20.964Z,25.3
2017-08-14T09:34:33.585Z,25.29
2017-08-14T09:35:45.831Z,25.36
2017-08-14T09:36:58.463Z,25.36
2017-08-14T09:38:11.045Z,25.41
2017-08-14T09:39:23.313Z,25.41
2017-08-14T09:40:35.350Z,25.39
2017-08-14T09:41:47.928Z,25.34
2017-08-14T09:43:00.225Z,25.44
2017-08-14T09:44:12.157Z,25.41
2017-08-14T09:45:24.502Z,25.55
2017-08-14T09:46:36.784Z,25.61
2017-08-14T09:47:48.801Z,25.62
2017-08-14T09:49:01.332Z,25.62
2017-08-14T09:50:13.325Z,25.58
2017-08-14T09:51:25.899Z,25.63
2017-08-14T09:52:37.854Z,25.71
2017-08-14T09:53:50.569Z,25.8
2017-08-14T09:55:02.846Z,25.67
2017-08-14T09:56:15.497Z,25.74
2017-08-14T09:57:27.494Z,25.66
2017-08-14T09:58:39.713Z,25.76
2017-08-14T09:59:51.750Z,25.74
2017-08-14T10:01:04.365Z,25.66
2017-08-14T10:02:16.941Z,25.67
2017-08-14T10:03:28.898Z,25.76
2017-08-14T10:04:41.499Z,25.8
2017-08-14T10:05:53.453Z,25.83
2017-08-14T10:07:05.162Z,25.81
2017-08-14T10:08:17.141Z,25.93
2017-08-14T10:09:29.396Z,25.96
2017-08-14T10:10:41.357Z,25.93
2017-08-14T10:11:53.637Z,26.1
2017-08-14T10:13:05.642Z,26.29
2017-08-14T10:14:18.319Z,26.48
2017-08-14T10:15:30.557Z,26.49
2017-08-14T10:16:42.864Z,26.64
2017-08-14T10:17:55.118Z,26.79
2017-08-14T10:19:07.733Z,27.04
2017-08-14T10:20:20.000Z,27.28
2017-08-14T10:21:31.648Z,27.41
2017-08-14T10:22:43.919Z,27.67
2017-08-14T10:23:56.346Z,27.85
2017-08-14T10:25:08.323Z,28.06
2017-08-14T10:26:20.961Z,28.04
2017-08-14T10:27:33.573Z,28.1
2017-08-14T10:28:45.607Z,28.19
2017-08-14T10:29:58.344Z,28.04
2017-08-14T10:31:10.686Z,27.94
2017-08-14T10:32:23.025Z,28.04
2017-08-14T10:33:35.296Z,27.95
2017-08-14T10:34:47.611Z,27.93
2017-08-14T10:35:59.920Z,28.06
2017-08-14T10:37:12.554Z,28.33
2017-08-14T10:38:24.591Z,28.53
2017-08-14T10:39:36.909Z,28.78
2017-08-14T10:40:48.891Z,29.03
2017-08-14T10:42:01.512Z,29.15
2017-08-14T10:43:13.220Z,29.42
2017-08-14T10:44:25.898Z,29.65
2017-08-14T10:45:38.516Z,29.76
2017-08-14T10:46:51.109Z,30.16
2017-08-14T10:48:03.709Z,30.32
2017-08-14T10:49:16.094Z,30.63
2017-08-14T10:50:28.094Z,31.07
2017-08-14T10:51:40.749Z,31.39
2017-08-14T10:52:53.368Z,31.73
2017-08-14T10:54:05.676Z,31.78
2017-08-14T10:55:17.954Z,31.73
2017-08-14T10:56:29.950Z,31.81
2017-08-14T10:57:42.584Z,31.72
2017-08-14T10:58:54.844Z,31.74
2017-08-14T11:00:07.456Z,31.55
2017-08-14T11:01:19.739Z,31.42
2017-08-14T11:02:31.699Z,31.18
2017-08-14T11:03:43.969Z,31.14
2017-08-14T11:04:56.251Z,31.05
2017-08-14T11:06:08.544Z,31.08
2017-08-14T11:07:20.825Z,31.29
2017-08-14T11:08:32.907Z,31.42
2017-08-14T11:09:45.238Z,31.41
2017-08-14T11:10:57.886Z,31.41
2017-08-14T11:12:10.224Z,31.37
2017-08-14T11:13:21.912Z,31.28
2017-08-14T11:14:34.183Z,31.41
2017-08-14T11:15:46.799Z,31.37
2017-08-14T11:16:59.459Z,31.54
2017-08-14T11:18:11.820Z,31.42
2017-08-14T11:19:24.429Z,31.54
2017-08-14T11:20:36.802Z,31.79
2017-08-14T11:21:49.389Z,31.67
2017-08-14T11:23:01.738Z,31.85
2017-08-14T11:24:14.038Z,31.9
2017-08-14T11:25:26.309Z,31.78
2017-08-14T11:26:38.924Z,31.73
2017-08-14T11:27:51.441Z,31.73
2017-08-14T11:29:03.777Z,31.72
2017-08-14T11:30:16.373Z,31.98
2017-08-14T11:31:28.410Z,32.11
2017-08-14T11:32:40.479Z,32.31
2017-08-14T11:33:52.481Z,32.42
2017-08-14T11:35:05.113Z,32.85
2017-08-14T11:36:17.684Z,33.13
2017-08-14T11:37:29.989Z,33.1
2017-08-14T11:38:42.301Z,33.35
2017-08-14T11:39:54.871Z,33.51
2017-08-14T11:41:07.490Z,33.76
2017-08-14T11:42:20.121Z,34
2017-08-14T11:43:32.399Z,34.13
2017-08-14T11:44:44.351Z,34.11
2017-08-14T11:45:56.083Z,34.21
2017-08-14T11:47:08.631Z,34.21
2017-08-14T11:48:20.895Z,34.21
2017-08-14T11:49:33.189Z,34.07
2017-08-14T11:50:45.445Z,33.95
2017-08-14T11:51:57.487Z,33.87
2017-08-14T11:53:10.076Z,33.72
2017-08-14T11:54:22.403Z,33.61
2017-08-14T11:55:34.694Z,33.61
2017-08-14T11:56:46.678Z,33.54
2017-08-14T11:57:58.959Z,33.75
2017-08-14T11:59:11.831Z,33.89
2017-08-14T12:00:24.153Z,34
2017-08-14T12:01:36.210Z,33.87
2017-08-14T12:02:48.876Z,34.07
2017-08-14T12:04:01.448Z,34.13
2017-08-14T12:05:14.011Z,34.31
2017-08-14T12:06:26.288Z,34.48
2017-08-14T12:07:38.914Z,34.53
2017-08-14T12:08:51.217Z,34.35
2017-08-14T12:10:03.845Z,34.16
2017-08-14T12:11:16.447Z,33.73
2017-08-14T12:12:28.451Z,33.44
2017-08-14T12:13:41.014Z,33.35
2017-08-14T12:14:53.318Z,33.15
2017-08-14T12:16:05.343Z,32.86
2017-08-14T12:17:17.928Z,32.95
2017-08-14T12:18:30.184Z,33
2017-08-14T12:19:42.168Z,33.08
2017-08-14T12:20:54.746Z,33.04
2017-08-14T12:22:07.071Z,33.05
2017-08-14T12:23:19.363Z,32.73
2017-08-14T12:24:31.696Z,32.66
2017-08-14T12:25:44.273Z,32.57
2017-08-14T12:26:56.350Z,32.44
2017-08-14T12:28:08.669Z,32.51
2017-08-14T12:29:21.333Z,32.56
2017-08-14T12:30:33.339Z,32.75
2017-08-14T12:31:45.667Z,32.94
2017-08-14T12:32:57.963Z,33.17
2017-08-14T12:34:10.599Z,33.28
2017-08-14T12:35:22.588Z,33.26
2017-08-14T12:36:34.562Z,33.19
2017-08-14T12:37:46.859Z,33.32
2017-08-14T12:38:58.843Z,33.32
2017-08-14T12:40:11.161Z,33.31
2017-08-14T12:41:23.447Z,33.13
2017-08-14T12:42:36.034Z,33.09
2017-08-14T12:43:48.661Z,32.86
2017-08-14T12:45:00.676Z,32.63
2017-08-14T12:46:13.335Z,32.46
2017-08-14T12:47:25.692Z,32.23
2017-08-14T12:48:37.683Z,31.95
2017-08-14T12:49:50.044Z,31.86
2017-08-14T12:51:01.737Z,31.81
2017-08-14T12:52:13.802Z,31.55
2017-08-14T12:53:26.359Z,31.54
2017-08-14T12:54:38.962Z,31.48
2017-08-14T12:55:51.247Z,31.48
2017-08-14T12:57:03.825Z,31.52
2017-08-14T12:58:15.797Z,31.66
2017-08-14T12:59:28.091Z,31.52
2017-08-14T13:00:40.334Z,31.5
2017-08-14T13:01:52.645Z,31.37
2017-08-14T13:03:05.275Z,31.22
2017-08-14T13:04:17.869Z,31.04
2017-08-14T13:05:30.193Z,31.02
2017-08-14T13:06:42.484Z,30.83
2017-08-14T13:07:54.792Z,30.69
2017-08-14T13:09:07.355Z,30.36
2017-08-14T13:10:19.641Z,30.36
2017-08-14T13:11:31.281Z,30.14
2017-08-14T13:12:43.624Z,30.08
2017-08-14T13:13:55.689Z,30.32
2017-08-14T13:15:07.723Z,30.46
2017-08-14T13:16:20.097Z,30.69
2017-08-14T13:17:32.399Z,31.02
2017-08-14T13:18:44.999Z,31.23
2017-08-14T13:19:56.971Z,31.5
2017-08-14T13:21:09.529Z,31.54
2017-08-14T13:22:22.125Z,31.72
2017-08-14T13:23:34.771Z,31.7
2017-08-14T13:24:46.423Z,31.54
2017-08-14T13:25:59.068Z,31.55
2017-08-14T13:27:11.365Z,31.51
2017-08-14T13:28:23.663Z,31.41
2017-08-14T13:29:36.294Z,31.42
2017-08-14T13:30:48.334Z,31.2
2017-08-14T13:32:00.947Z,31.08
2017-08-14T13:33:13.213Z,30.83
2017-08-14T13:34:25.267Z,30.43
2017-08-14T13:35:37.840Z,30.43
2017-08-14T13:36:49.799Z,30.18
2017-08-14T13:38:02.408Z,29.94
2017-08-14T13:39:14.718Z,29.67
2017-08-14T13:40:27.273Z,29.65
2017-08-14T13:41:39.554Z,29.49
2017-08-14T13:42:51.491Z,29.28
2017-08-14T13:44:04.092Z,29.28
2017-08-14T13:45:16.054Z,29.03
2017-08-14T13:46:28.028Z,28.96
2017-08-14T13:47:40.384Z,28.77
2017-08-14T13:48:53.011Z,28.67
2017-08-14T13:50:04.980Z,28.34
2017-08-14T13:51:17.545Z,28.23
2017-08-14T13:52:29.859Z,28.04
2017-08-14T13:53:41.874Z,27.9
2017-08-14T13:54:53.853Z,27.85
2017-08-14T13:56:05.826Z,27.72
2017-08-14T13:57:18.132Z,27.82
2017-08-14T13:58:30.703Z,27.72
2017-08-14T13:59:43.305Z,27.63
2017-08-14T14:00:55.878Z,27.5
2017-08-14T14:02:08.500Z,27.53
2017-08-14T14:03:20.152Z,27.43
2017-08-14T14:04:32.443Z,27.4
2017-08-14T14:05:44.393Z,27.35
2017-08-14T14:06:56.681Z,27.38
2017-08-14T14:08:08.958Z,27.38
2017-08-14T14:09:21.526Z,27.19
2017-08-14T14:10:33.472Z,27.23
2017-08-14T14:11:45.733Z,27.19
2017-08-14T14:12:58.344Z,27.19
2017-08-14T14:14:10.962Z,27.22
2017-08-14T14:15:22.933Z,27.25
2017-08-14T14:16:35.006Z,27.28
2017-08-14T14:17:47.313Z,27.23
2017-08-14T14:18:59.341Z,27.25
2017-08-14T14:20:11.663Z,27.28
2017-08-14T14:21:23.650Z,27.19
2017-08-14T14:22:35.956Z,27.19
2017-08-14T14:23:47.673Z,27.29
2017-08-14T14:24:59.975Z,27.23
2017-08-14T14:26:12.620Z,27.2
2017-08-14T14:27:25.191Z,27.19
2017-08-14T14:28:37.474Z,27.23
2017-08-14T14:29:49.173Z,27.22
2017-08-14T14:31:01.750Z,27.05
2017-08-14T14:32:13.971Z,27.03
2017-08-14T14:33:25.668Z,27
2017-08-14T14:34:38.269Z,26.93
2017-08-14T14:35:50.564Z,26.85
2017-08-14T14:37:03.193Z,26.79
2017-08-14T14:38:15.768Z,26.71
2017-08-14T14:39:28.071Z,26.68
2017-08-14T14:40:40.407Z,26.48
2017-08-14T14:41:52.662Z,26.45
2017-08-14T14:43:05.263Z,26.49
2017-08-14T14:44:17.232Z,26.39
2017-08-14T14:45:29.256Z,26.3
2017-08-14T14:46:41.875Z,26.33
2017-08-14T14:47:54.150Z,26.23
2017-08-14T14:49:06.443Z,26.26
2017-08-14T14:50:18.738Z,26.26
2017-08-14T14:51:31.398Z,26.26
2017-08-14T14:52:43.982Z,26.18
2017-08-14T14:53:56.286Z,26.22
2017-08-14T14:55:08.894Z,26.31
2017-08-14T14:56:21.513Z,26.31
2017-08-14T14:57:33.828Z,26.29
2017-08-14T14:58:46.049Z,26.31
2017-08-14T14:59:58.388Z,26.26
2017-08-14T15:01:10.689Z,26.24
2017-08-14T15:02:23.011Z,26.23
2017-08-14T15:03:35.258Z,26.01
2017-08-14T15:04:47.828Z,25.95
2017-08-14T15:06:00.149Z,25.77
2017-08-14T15:07:12.720Z,25.81
2017-08-14T15:08:25.004Z,25.81
2017-08-14T15:09:37.355Z,25.66
2017-08-14T15:10:49.990Z,25.61
2017-08-14T15:12:02.548Z,25.52
2017-08-14T15:13:15.132Z,25.37
2017-08-14T15:14:27.465Z,25.33
2017-08-14T15:15:39.817Z,25.24
2017-08-14T15:16:52.426Z,25.21
2017-08-14T15:18:05.065Z,25.21
2017-08-14T15:19:17.320Z,25.01
2017-08-14T15:20:30.209Z,24.96
2017-08-14T15:21:42.771Z,24.94
2017-08-14T15:22:55.441Z,24.81
2017-08-14T15:24:08.018Z,24.68
2017-08-14T15:25:19.999Z,24.66
2017-08-14T15:26:32.311Z,24.62
2017-08-14T15:27:44.641Z,24.5
2017-08-14T15:28:56.960Z,24.46
2017-08-14T15:30:09.261Z,24.37
2017-08-14T15:31:21.563Z,24.29
2017-08-14T15:32:34.119Z,24.22
2017-08-14T15:33:46.415Z,24.22
2017-08-14T15:34:58.740Z,24.09
2017-08-14T15:36:11.311Z,24.1